Nelson Bay (Nelson Head), New South Wales

8:39 PM AEST on July 28, 2016 (GMT +1000)
Port Stephens | | Change Station

Elev 150 ft 32.73 °S, 152.03 °E | Updated 3 minutes ago

Clear
Clear
56.0 °F
Feels Like 56.0 °F
N
2.0
Wind Variable Wind from WNW
Gusts 6.0 mph

Today
High -- | Low -- °F
--% Chance of Precip.
Yesterday
High -- | Low -- °F
Precip. -- in
Pressure 30.18 in
Visibility -9999.0 miles
Clouds
Dew Point 46 °F
Humidity 69%
Rainfall 0.00 in
Snow Depth Not available.
6:45 AM 5:11 PM
Waning Crescent, 33% visible
METAR YWLM 281000Z 33005KT CAVOK 11/05 Q1022
Pressure 30.18 in
Visibility -9999.0 miles
Clouds
Dew Point 46 °F
Humidity 69%
Rainfall 0.00 in
Snow Depth Not available.
6:45 AM 5:11 PM
Waning Crescent, 33% visible
METAR YWLM 281000Z 33005KT CAVOK 11/05 Q1022

10-Day Weather Forecast

Almanac

Astronomy

Jul. 28, 2016 Rise Set
Actual Time
Civil Twilight
Nautical Twilight
Astronomical Twilight
Moon
Length of Visible Light
Length of Day
Tomorrow will be .
, % of the Moon is Illuminated

Today's Extremes

Country Highs Country Lows

Community

WunderPhotos

Upload Photos

1,928,081 photos uploaded!

WunderBlog® & News

Nearby

Air Quality

  Air Quality AQ Index Pollutant
Not available.

Snow Depth

Station Depth Elevation

Earthquake Activity

City Distance Mag. Time & Date
Minimum magnitude displayed is 2.5.

Coastal Water Temperatures

Place Temperature

Stations

Nearby Weather Stations

Station Location Temp. Windchill Dew Point Humidity Wind Precip. Elev Updated Type